Time;durP1;ratioP1;P1;durP2;ratioP2;P2;SDS_P1;SDS_P2;PMS_P1;PMS_P2;Temp;Humidity;BMP_temperature;BMP_pressure;BME280_temperature;BME280_humidity;BME280_pressure;Samples;Min_cycle;Max_cycle;Signal;HPM_P1;HPM_P2
2022/07/08 00:02:07;;;;;;;11.57;2.40;;;;;;;;;;10422433;28;20594;-76
2022/07/08 00:07:08;;;;;;;15.90;2.58;;;;;;;;;;10438032;28;20218;-77
2022/07/08 00:12:10;;;;;;;9.88;2.30;;;;;;;;;;10418653;28;20227;-77
2022/07/08 00:17:11;;;;;;;16.55;3.15;;;;;;;;;;10436467;28;20242;-78
2022/07/08 00:22:12;;;;;;;16.60;2.85;;;;;;;;;;10412563;28;20203;-77
2022/07/08 00:27:13;;;;;;;11.07;2.42;;;;;;;;;;10432160;28;20215;-77
2022/07/08 00:32:14;;;;;;;19.90;2.78;;;;;;;;;;10435572;28;20625;-78
2022/07/08 00:37:15;;;;;;;17.13;2.42;;;;;;;;;;10433208;28;20194;-78
2022/07/08 00:42:17;;;;;;;13.65;2.50;;;;;;;;;;10417369;28;20198;-78
2022/07/08 00:47:18;;;;;;;13.80;2.55;;;;;;;;;;10420280;28;20702;-76
2022/07/08 00:52:19;;;;;;;19.08;3.05;;;;;;;;;;10438751;28;20635;-78
2022/07/08 00:57:20;;;;;;;24.17;3.67;;;;;;;;;;10434732;28;20194;-75
2022/07/08 01:02:21;;;;;;;13.18;2.40;;;;;;;;;;10431117;28;20310;-73
2022/07/08 01:07:23;;;;;;;20.42;3.15;;;;;;;;;;10424896;28;20232;-71
2022/07/08 01:12:24;;;;;;;12.50;2.50;;;;;;;;;;10416118;28;20192;-72
2022/07/08 01:17:28;;;;;;;17.90;3.28;;;;;;;;;;10415715;28;20239;-72
2022/07/08 01:22:30;;;;;;;13.05;2.67;;;;;;;;;;10422460;28;20191;-73
2022/07/08 01:27:31;;;;;;;14.65;3.00;;;;;;;;;;10422582;28;20207;-73
2022/07/08 01:32:36;;;;;;;7.55;2.53;;;;;;;;;;10402968;28;20211;-70
2022/07/08 01:37:37;;;;;;;13.93;4.03;;;;;;;;;;10402633;28;20194;-73
2022/07/08 01:42:38;;;;;;;12.35;2.55;;;;;;;;;;10421864;28;20187;-73
2022/07/08 01:47:39;;;;;;;20.73;2.83;;;;;;;;;;10400623;28;20223;-72
2022/07/08 01:52:40;;;;;;;22.15;3.85;;;;;;;;;;10426457;28;20183;-74
2022/07/08 01:57:41;;;;;;;16.58;3.03;;;;;;;;;;10407385;28;20187;-72
2022/07/08 02:02:42;;;;;;;19.27;3.40;;;;;;;;;;10424196;28;20246;-73
2022/07/08 02:07:43;;;;;;;12.57;3.00;;;;;;;;;;10420343;28;20230;-72
2022/07/08 02:12:44;;;;;;;16.88;2.90;;;;;;;;;;10420710;28;20278;-74
2022/07/08 02:17:46;;;;;;;18.65;3.58;;;;;;;;;;10424189;28;20309;-74
2022/07/08 02:22:47;;;;;;;14.52;2.95;;;;;;;;;;10423432;28;20655;-74
2022/07/08 02:27:48;;;;;;;15.23;2.47;;;;;;;;;;10422132;28;21029;-74
2022/07/08 02:32:49;;;;;;;14.20;2.38;;;;;;;;;;10404785;28;20279;-71
2022/07/08 02:37:50;;;;;;;11.18;2.60;;;;;;;;;;10422059;28;20226;-74
2022/07/08 02:42:51;;;;;;;11.48;2.35;;;;;;;;;;10421511;28;21158;-74
2022/07/08 02:47:52;;;;;;;11.65;2.70;;;;;;;;;;10415246;28;20253;-74
2022/07/08 02:52:53;;;;;;;11.65;2.83;;;;;;;;;;10415154;28;20237;-72
2022/07/08 02:57:54;;;;;;;15.27;3.10;;;;;;;;;;10408150;28;20237;-74
2022/07/08 03:02:55;;;;;;;11.00;2.60;;;;;;;;;;10420094;28;20246;-73
2022/07/08 03:07:57;;;;;;;16.27;2.45;;;;;;;;;;10418962;28;20701;-73
2022/07/08 03:12:58;;;;;;;13.75;2.83;;;;;;;;;;10422437;28;20217;-74
2022/07/08 03:17:59;;;;;;;10.10;2.50;;;;;;;;;;10413556;28;20585;-74
2022/07/08 03:23:00;;;;;;;12.80;2.33;;;;;;;;;;10416821;28;20195;-74
2022/07/08 03:28:01;;;;;;;11.23;2.10;;;;;;;;;;10421689;28;20656;-76
2022/07/08 03:33:02;;;;;;;13.32;2.30;;;;;;;;;;10417491;28;20225;-75
2022/07/08 03:38:03;;;;;;;18.38;2.38;;;;;;;;;;10415680;28;20315;-75
2022/07/08 03:43:04;;;;;;;10.05;2.53;;;;;;;;;;10429242;28;20265;-75
2022/07/08 03:48:05;;;;;;;13.40;2.05;;;;;;;;;;10434793;28;20639;-74
2022/07/08 03:53:06;;;;;;;15.07;2.53;;;;;;;;;;10428492;28;20221;-75
2022/07/08 03:58:07;;;;;;;11.15;1.85;;;;;;;;;;10429362;28;20279;-75
2022/07/08 04:03:08;;;;;;;10.48;2.05;;;;;;;;;;10431446;28;20273;-75
2022/07/08 04:08:10;;;;;;;14.43;2.38;;;;;;;;;;10425149;28;20321;-74
2022/07/08 04:13:11;;;;;;;11.75;2.08;;;;;;;;;;10398753;28;20200;-75
2022/07/08 04:18:12;;;;;;;11.98;1.67;;;;;;;;;;10411895;28;20210;-75
2022/07/08 04:23:13;;;;;;;9.50;1.65;;;;;;;;;;10432778;28;20507;-75
2022/07/08 04:28:14;;;;;;;10.50;1.95;;;;;;;;;;10430157;28;20300;-74
2022/07/08 04:33:15;;;;;;;16.98;2.22;;;;;;;;;;10430643;28;20299;-76
2022/07/08 04:38:16;;;;;;;10.27;2.17;;;;;;;;;;10431155;28;20224;-73
2022/07/08 04:43:17;;;;;;;10.98;1.70;;;;;;;;;;10434175;28;20202;-75
2022/07/08 04:48:18;;;;;;;16.00;1.80;;;;;;;;;;10432086;28;20219;-76
2022/07/08 04:53:19;;;;;;;13.68;2.38;;;;;;;;;;10427527;28;20257;-77
2022/07/08 04:58:20;;;;;;;11.35;1.80;;;;;;;;;;10421950;28;20261;-76
2022/07/08 05:03:22;;;;;;;12.80;1.98;;;;;;;;;;10427633;28;20249;-76
2022/07/08 05:08:23;;;;;;;10.80;1.70;;;;;;;;;;10426628;28;20227;-76
2022/07/08 05:13:24;;;;;;;6.25;1.30;;;;;;;;;;10426671;28;20193;-73
2022/07/08 05:18:25;;;;;;;5.40;1.65;;;;;;;;;;10426052;28;20220;-75
2022/07/08 05:23:26;;;;;;;6.55;1.70;;;;;;;;;;10409306;28;20281;-74
2022/07/08 05:28:27;;;;;;;14.57;1.85;;;;;;;;;;10428612;28;20218;-74
2022/07/08 05:33:28;;;;;;;7.32;1.58;;;;;;;;;;10401167;28;20820;-76
2022/07/08 05:38:29;;;;;;;9.75;1.95;;;;;;;;;;10427830;28;20191;-77
2022/07/08 05:43:30;;;;;;;8.40;1.10;;;;;;;;;;10426328;28;20187;-78
2022/07/08 05:48:31;;;;;;;9.02;2.10;;;;;;;;;;10421392;28;20229;-76
2022/07/08 05:53:32;;;;;;;11.45;2.22;;;;;;;;;;10384944;28;20320;-76
2022/07/08 05:58:33;;;;;;;8.95;1.45;;;;;;;;;;10419648;28;20680;-77
2022/07/08 06:03:34;;;;;;;7.03;1.30;;;;;;;;;;10392687;28;20302;-75
2022/07/08 06:08:35;;;;;;;2.83;0.93;;;;;;;;;;10398770;28;20258;-76
2022/07/08 06:13:36;;;;;;;9.25;1.40;;;;;;;;;;10424199;28;20196;-76
2022/07/08 06:18:37;;;;;;;7.78;1.13;;;;;;;;;;10418326;28;20329;-78
2022/07/08 06:23:39;;;;;;;11.35;1.90;;;;;;;;;;10422823;28;20196;-74
2022/07/08 06:28:40;;;;;;;7.00;1.45;;;;;;;;;;10420465;28;20226;-74
2022/07/08 06:33:41;;;;;;;10.88;1.45;;;;;;;;;;10421522;28;20253;-74
2022/07/08 06:38:42;;;;;;;12.85;1.85;;;;;;;;;;10420939;28;20191;-76
2022/07/08 06:43:44;;;;;;;6.80;1.27;;;;;;;;;;10422865;28;20191;-74
2022/07/08 06:48:45;;;;;;;5.68;1.33;;;;;;;;;;10422242;28;20223;-74
2022/07/08 06:59:06;;;;;;;5.10;1.08;;;;;;;;;;10419588;28;20779;-73
2022/07/08 07:04:09;;;;;;;9.93;1.42;;;;;;;;;;10403587;28;20690;-76
2022/07/08 07:09:10;;;;;;;12.73;1.38;;;;;;;;;;10415312;28;20341;-74
2022/07/08 07:14:11;;;;;;;10.25;1.20;;;;;;;;;;10425435;28;20670;-73
2022/07/08 07:19:12;;;;;;;7.82;1.10;;;;;;;;;;10422685;28;20218;-76
2022/07/08 07:24:13;;;;;;;7.85;0.98;;;;;;;;;;10427782;28;20199;-74
2022/07/08 07:29:15;;;;;;;5.97;0.80;;;;;;;;;;10423258;28;20222;-73
2022/07/08 07:34:16;;;;;;;5.10;1.35;;;;;;;;;;10420927;28;21037;-74
2022/07/08 07:39:17;;;;;;;7.15;1.10;;;;;;;;;;10425333;28;20877;-74
2022/07/08 07:44:18;;;;;;;3.63;1.08;;;;;;;;;;10405893;28;20191;-72
2022/07/08 07:49:19;;;;;;;7.20;0.85;;;;;;;;;;10424335;28;20643;-73
2022/07/08 07:54:20;;;;;;;4.93;1.02;;;;;;;;;;10429222;28;20192;-74
2022/07/08 07:59:21;;;;;;;6.07;1.45;;;;;;;;;;10414664;28;20187;-75
2022/07/08 08:04:22;;;;;;;6.20;1.23;;;;;;;;;;10392969;28;20215;-74
2022/07/08 08:09:24;;;;;;;6.55;0.85;;;;;;;;;;10422792;28;20222;-74
2022/07/08 08:14:25;;;;;;;13.25;1.35;;;;;;;;;;10405421;28;20242;-73
2022/07/08 08:19:26;;;;;;;5.68;1.20;;;;;;;;;;10418779;28;20303;-72
2022/07/08 08:24:27;;;;;;;5.57;1.20;;;;;;;;;;10421675;28;20198;-74
2022/07/08 08:29:28;;;;;;;5.47;0.80;;;;;;;;;;10421848;28;20222;-75
2022/07/08 08:34:30;;;;;;;4.47;0.80;;;;;;;;;;10423636;28;20215;-73
2022/07/08 08:39:31;;;;;;;3.17;0.75;;;;;;;;;;10426417;28;20671;-73
2022/07/08 08:44:32;;;;;;;5.82;1.10;;;;;;;;;;10426339;28;20191;-73
2022/07/08 08:49:34;;;;;;;1.95;0.70;;;;;;;;;;10421878;28;20226;-75
2022/07/08 08:54:36;;;;;;;4.57;0.70;;;;;;;;;;10423189;28;20194;-75
2022/07/08 08:59:38;;;;;;;2.42;0.50;;;;;;;;;;10423785;28;20202;-75
2022/07/08 09:04:39;;;;;;;1.58;0.82;;;;;;;;;;10407921;28;20226;-74
2022/07/08 09:09:40;;;;;;;4.07;0.90;;;;;;;;;;10418098;28;21044;-74
2022/07/08 09:14:48;;;;;;;1.98;1.02;;;;;;;;;;10423241;28;20191;-75
2022/07/08 09:19:50;;;;;;;4.85;0.82;;;;;;;;;;10425541;28;20215;-75
2022/07/08 09:24:51;;;;;;;4.55;0.75;;;;;;;;;;10420974;28;20365;-73
2022/07/08 09:29:59;;;;;;;5.10;0.70;;;;;;;;;;10426081;28;20210;-73
2022/07/08 09:35:01;;;;;;;3.20;0.73;;;;;;;;;;10418007;28;20223;-74
2022/07/08 09:40:02;;;;;;;2.00;0.70;;;;;;;;;;10420328;28;20768;-73
2022/07/08 09:45:07;;;;;;;3.67;0.80;;;;;;;;;;10419766;28;22443;-71
2022/07/08 09:50:09;;;;;;;5.40;1.00;;;;;;;;;;10418888;28;20388;-74
2022/07/08 09:55:10;;;;;;;1.52;0.77;;;;;;;;;;10423171;28;20190;-73
2022/07/08 10:00:12;;;;;;;3.42;0.70;;;;;;;;;;10406020;28;20257;-74
2022/07/08 10:05:16;;;;;;;5.55;0.80;;;;;;;;;;10391029;28;20218;-73
2022/07/08 10:10:17;;;;;;;3.13;0.70;;;;;;;;;;10412009;28;20261;-74
2022/07/08 10:15:18;;;;;;;2.25;0.80;;;;;;;;;;10419494;28;20206;-69
2022/07/08 10:20:22;;;;;;;3.38;0.80;;;;;;;;;;10420511;28;20214;-74
2022/07/08 10:25:24;;;;;;;5.75;0.88;;;;;;;;;;10418698;28;20202;-72
2022/07/08 10:30:25;;;;;;;4.85;1.00;;;;;;;;;;10420017;28;20253;-77
2022/07/08 10:35:26;;;;;;;4.70;0.70;;;;;;;;;;10420032;28;20229;-77
2022/07/08 10:40:37;;;;;;;2.50;0.57;;;;;;;;;;10421503;28;20216;-74
2022/07/08 10:45:56;;;;;;;4.25;0.70;;;;;;;;;;10418715;28;20856;-74
2022/07/08 10:50:58;;;;;;;2.25;0.80;;;;;;;;;;10418552;28;20237;-74
2022/07/08 10:55:59;;;;;;;3.20;1.02;;;;;;;;;;10421056;28;20195;-72
2022/07/08 11:01:29;;;;;;;2.67;0.65;;;;;;;;;;10419120;28;20249;-73
2022/07/08 11:06:34;;;;;;;2.97;0.47;;;;;;;;;;10401682;28;20234;-73
2022/07/08 11:11:37;;;;;;;4.80;0.82;;;;;;;;;;10419661;28;20190;-75
2022/07/08 11:16:38;;;;;;;5.97;0.90;;;;;;;;;;10415663;28;20210;-73
2022/07/08 11:21:39;;;;;;;2.60;0.75;;;;;;;;;;10418796;28;20203;-74
2022/07/08 11:26:40;;;;;;;1.48;0.73;;;;;;;;;;10417779;28;20250;-74
2022/07/08 11:31:42;;;;;;;5.72;1.00;;;;;;;;;;10407598;28;20268;-73
2022/07/08 11:36:52;;;;;;;6.25;0.93;;;;;;;;;;10418645;28;20198;-73
2022/07/08 11:41:54;;;;;;;1.88;0.70;;;;;;;;;;10416407;28;20892;-72
2022/07/08 11:46:55;;;;;;;5.35;1.05;;;;;;;;;;10416928;28;20229;-74
2022/07/08 11:51:57;;;;;;;2.58;1.05;;;;;;;;;;10418652;28;20194;-73
2022/07/08 11:57:06;;;;;;;4.07;0.90;;;;;;;;;;10396045;28;20199;-75
2022/07/08 12:02:07;;;;;;;2.47;0.75;;;;;;;;;;10406626;28;20269;-74
2022/07/08 12:07:41;;;;;;;6.78;1.02;;;;;;;;;;10422967;28;20239;-75
2022/07/08 12:12:42;;;;;;;2.60;0.70;;;;;;;;;;10389488;28;20191;-76
2022/07/08 12:17:56;;;;;;;4.28;0.80;;;;;;;;;;10428431;28;20231;-75
2022/07/08 12:22:57;;;;;;;2.38;1.10;;;;;;;;;;10400328;28;20199;-73
2022/07/08 12:27:59;;;;;;;3.00;0.90;;;;;;;;;;10424342;28;20215;-77
2022/07/08 12:33:01;;;;;;;1.60;0.70;;;;;;;;;;10424180;28;20210;-77
2022/07/08 12:38:05;;;;;;;5.82;1.05;;;;;;;;;;10420538;28;20195;-76
2022/07/08 12:43:07;;;;;;;5.28;1.17;;;;;;;;;;10421701;28;20320;-74
2022/07/08 12:48:08;;;;;;;7.13;1.33;;;;;;;;;;10424468;28;20352;-77
2022/07/08 12:53:09;;;;;;;3.85;1.02;;;;;;;;;;10423665;28;20210;-75
2022/07/08 12:58:10;;;;;;;4.43;1.00;;;;;;;;;;10426824;28;20735;-75
2022/07/08 13:03:11;;;;;;;1.67;0.75;;;;;;;;;;10403435;28;20253;-74
2022/07/08 13:08:12;;;;;;;2.78;0.90;;;;;;;;;;10420947;28;20230;-75
2022/07/08 13:13:14;;;;;;;5.70;1.10;;;;;;;;;;10423199;28;20183;-74
2022/07/08 13:18:15;;;;;;;2.17;1.15;;;;;;;;;;10424797;28;20214;-74
2022/07/08 13:23:16;;;;;;;1.20;0.63;;;;;;;;;;10424567;28;20195;-74
2022/07/08 13:28:17;;;;;;;3.15;0.70;;;;;;;;;;10426610;28;20219;-74
2022/07/08 13:33:18;;;;;;;3.05;0.80;;;;;;;;;;10411739;28;20634;-75
2022/07/08 13:38:19;;;;;;;1.73;1.17;;;;;;;;;;10426911;28;20195;-75
2022/07/08 13:43:20;;;;;;;1.38;0.75;;;;;;;;;;10424972;28;20734;-74
2022/07/08 13:48:21;;;;;;;2.00;0.90;;;;;;;;;;10426997;28;20220;-73
2022/07/08 13:53:23;;;;;;;3.85;0.80;;;;;;;;;;10423435;28;20183;-73
2022/07/08 13:58:24;;;;;;;2.17;0.63;;;;;;;;;;10424536;28;20190;-74
2022/07/08 14:03:25;;;;;;;2.40;0.88;;;;;;;;;;10416811;28;20211;-73
2022/07/08 14:08:26;;;;;;;2.53;0.70;;;;;;;;;;10425388;28;20219;-73
2022/07/08 14:13:27;;;;;;;2.03;0.70;;;;;;;;;;10425557;28;20191;-73
2022/07/08 14:18:28;;;;;;;3.88;0.70;;;;;;;;;;10424852;28;20211;-73
2022/07/08 14:23:29;;;;;;;2.13;0.80;;;;;;;;;;10414630;28;20191;-73
2022/07/08 14:28:30;;;;;;;4.13;0.95;;;;;;;;;;10407397;28;20620;-73
2022/07/08 14:33:31;;;;;;;2.63;0.80;;;;;;;;;;10424794;28;20773;-74
2022/07/08 14:38:32;;;;;;;5.93;0.70;;;;;;;;;;10422939;28;20196;-74
2022/07/08 14:43:33;;;;;;;4.22;0.70;;;;;;;;;;10424106;28;20198;-74
2022/07/08 14:48:34;;;;;;;2.28;0.65;;;;;;;;;;10422449;28;20761;-74
2022/07/08 14:53:35;;;;;;;1.67;0.52;;;;;;;;;;10417731;28;20193;-74
2022/07/08 14:58:36;;;;;;;0.60;0.60;;;;;;;;;;10415307;28;20768;-75
2022/07/08 15:03:38;;;;;;;1.13;0.57;;;;;;;;;;10420414;28;20215;-73
2022/07/08 15:08:39;;;;;;;1.75;0.70;;;;;;;;;;10422588;28;20265;-74
2022/07/08 15:13:40;;;;;;;2.60;0.50;;;;;;;;;;10423694;28;20197;-74
2022/07/08 15:18:41;;;;;;;2.22;0.50;;;;;;;;;;10424625;28;20234;-76
2022/07/08 15:23:42;;;;;;;0.55;0.50;;;;;;;;;;10423730;28;20196;-77
2022/07/08 15:28:43;;;;;;;0.50;0.50;;;;;;;;;;10421839;28;20214;-75
2022/07/08 15:33:44;;;;;;;0.40;0.40;;;;;;;;;;10389516;28;20222;-76
2022/07/08 15:38:45;;;;;;;0.55;0.55;;;;;;;;;;10428783;28;20228;-75
2022/07/08 15:43:46;;;;;;;2.30;0.47;;;;;;;;;;10427849;28;20963;-75
2022/07/08 15:48:47;;;;;;;0.63;0.57;;;;;;;;;;10428925;28;20222;-74
2022/07/08 15:53:48;;;;;;;1.33;0.60;;;;;;;;;;10430573;28;20226;-75
2022/07/08 15:58:50;;;;;;;0.60;0.60;;;;;;;;;;10429832;28;20187;-74
2022/07/08 16:03:51;;;;;;;0.68;0.50;;;;;;;;;;10425949;28;20222;-74
2022/07/08 16:08:52;;;;;;;1.88;0.50;;;;;;;;;;10425769;28;20231;-76
2022/07/08 16:13:53;;;;;;;1.40;0.60;;;;;;;;;;10421721;28;20191;-76
2022/07/08 16:18:54;;;;;;;0.90;0.50;;;;;;;;;;10426490;28;20697;-74
2022/07/08 16:23:56;;;;;;;2.88;0.60;;;;;;;;;;10427805;28;20199;-75
2022/07/08 16:28:57;;;;;;;1.83;0.55;;;;;;;;;;10407705;28;20214;-74
2022/07/08 16:33:58;;;;;;;0.82;0.77;;;;;;;;;;10423951;28;20229;-75
2022/07/08 16:38:59;;;;;;;0.93;0.60;;;;;;;;;;10420270;28;20293;-73
2022/07/08 16:44:01;;;;;;;1.83;0.50;;;;;;;;;;10420687;28;20248;-73
2022/07/08 16:49:02;;;;;;;1.30;0.50;;;;;;;;;;10421257;28;20219;-74
2022/07/08 16:54:03;;;;;;;2.28;0.57;;;;;;;;;;10417689;28;20191;-72
2022/07/08 16:59:08;;;;;;;1.92;0.73;;;;;;;;;;10425342;28;20202;-74
2022/07/08 17:04:09;;;;;;;1.27;0.60;;;;;;;;;;10421867;28;20245;-75
2022/07/08 17:09:10;;;;;;;0.57;0.50;;;;;;;;;;10420628;28;20295;-71
2022/07/08 17:14:12;;;;;;;0.50;0.50;;;;;;;;;;10425126;28;20195;-73
2022/07/08 17:19:13;;;;;;;2.15;0.55;;;;;;;;;;10423133;28;20249;-76
2022/07/08 17:24:14;;;;;;;5.63;0.50;;;;;;;;;;10425803;28;20195;-73
2022/07/08 17:34:35;;;;;;;0.88;0.40;;;;;;;;;;10422989;28;20245;-74
2022/07/08 17:39:36;;;;;;;1.20;0.60;;;;;;;;;;10421649;28;20198;-73
2022/07/08 17:44:38;;;;;;;0.50;0.40;;;;;;;;;;10424728;28;20636;-72
2022/07/08 17:49:39;;;;;;;2.83;0.50;;;;;;;;;;10427435;28;20215;-71
2022/07/08 17:54:40;;;;;;;1.15;0.65;;;;;;;;;;10424861;28;20206;-75
2022/07/08 17:59:42;;;;;;;0.85;0.47;;;;;;;;;;10425174;28;20218;-72
2022/07/08 18:04:43;;;;;;;0.50;0.50;;;;;;;;;;10426123;28;20262;-74
2022/07/08 18:09:44;;;;;;;1.83;0.60;;;;;;;;;;10406182;28;20229;-72
2022/07/08 18:14:45;;;;;;;0.45;0.45;;;;;;;;;;10414503;28;20214;-69
2022/07/08 18:19:46;;;;;;;3.13;0.80;;;;;;;;;;10396395;28;20210;-75
2022/07/08 18:24:47;;;;;;;0.90;0.90;;;;;;;;;;10426610;28;20686;-74
2022/07/08 18:29:48;;;;;;;1.75;0.80;;;;;;;;;;10430607;28;20215;-73
2022/07/08 18:34:49;;;;;;;2.10;0.80;;;;;;;;;;10375488;28;20294;-72
2022/07/08 18:39:50;;;;;;;0.70;0.70;;;;;;;;;;10421407;28;20187;-76
2022/07/08 18:44:51;;;;;;;3.08;0.60;;;;;;;;;;10421551;28;20191;-77
2022/07/08 18:49:53;;;;;;;0.98;0.50;;;;;;;;;;10428176;28;20759;-74
2022/07/08 18:54:54;;;;;;;0.68;0.60;;;;;;;;;;10421249;28;20562;-73
2022/07/08 18:59:55;;;;;;;2.38;0.70;;;;;;;;;;10420368;28;20190;-77
2022/07/08 19:04:57;;;;;;;1.30;1.20;;;;;;;;;;10425284;28;20218;-79
2022/07/08 19:09:58;;;;;;;0.85;0.85;;;;;;;;;;10430468;28;20233;-73
2022/07/08 19:14:59;;;;;;;0.80;0.80;;;;;;;;;;10431294;28;20222;-79
2022/07/08 19:20:00;;;;;;;1.38;0.90;;;;;;;;;;10449847;28;20219;-78
2022/07/08 19:25:02;;;;;;;1.65;0.90;;;;;;;;;;10447310;28;20186;-77
2022/07/08 19:30:03;;;;;;;3.90;1.33;;;;;;;;;;10441185;28;20223;-75
2022/07/08 19:35:05;;;;;;;1.80;0.88;;;;;;;;;;10437874;28;20289;-75
2022/07/08 19:40:06;;;;;;;1.30;1.10;;;;;;;;;;10441468;28;20180;-75
2022/07/08 19:45:07;;;;;;;1.10;1.10;;;;;;;;;;10437584;28;20249;-79
2022/07/08 19:50:09;;;;;;;2.97;1.30;;;;;;;;;;10443370;28;20721;-81
2022/07/08 19:55:10;;;;;;;2.55;1.60;;;;;;;;;;10445417;28;20187;-80
2022/07/08 20:00:11;;;;;;;2.05;1.85;;;;;;;;;;10438560;28;20231;-81
2022/07/08 20:05:15;;;;;;;3.90;1.48;;;;;;;;;;10411754;28;20215;-77
2022/07/08 20:10:16;;;;;;;1.60;1.52;;;;;;;;;;10420265;28;20229;-78
2022/07/08 20:15:17;;;;;;;1.63;1.60;;;;;;;;;;10441901;28;20187;-80
2022/07/08 20:20:19;;;;;;;3.08;2.30;;;;;;;;;;10428701;28;20203;-79
2022/07/08 20:25:20;;;;;;;3.92;2.65;;;;;;;;;;10435996;28;20199;-79
2022/07/08 20:30:24;;;;;;;3.63;2.92;;;;;;;;;;10438535;28;20207;-79
2022/07/08 20:35:25;;;;;;;3.03;2.72;;;;;;;;;;10437388;28;20183;-80
2022/07/08 20:40:27;;;;;;;4.25;3.53;;;;;;;;;;10444246;28;20202;-80
2022/07/08 20:45:28;;;;;;;3.58;3.38;;;;;;;;;;10444794;28;20206;-80
2022/07/08 20:50:29;;;;;;;3.97;3.63;;;;;;;;;;10444112;28;20627;-80
2022/07/08 20:55:30;;;;;;;4.03;3.72;;;;;;;;;;10443849;28;20176;-79
2022/07/08 21:00:31;;;;;;;3.90;3.58;;;;;;;;;;10433657;28;21148;-79
2022/07/08 21:05:32;;;;;;;3.20;3.10;;;;;;;;;;10446258;28;20191;-80
2022/07/08 21:10:33;;;;;;;3.63;3.33;;;;;;;;;;10446521;28;20218;-80
2022/07/08 21:15:34;;;;;;;3.80;3.47;;;;;;;;;;10442796;28;20221;-80
2022/07/08 21:20:35;;;;;;;5.80;3.13;;;;;;;;;;10413603;28;20226;-80
2022/07/08 21:25:37;;;;;;;4.35;3.60;;;;;;;;;;10444794;28;20187;-79
2022/07/08 21:30:38;;;;;;;3.90;3.33;;;;;;;;;;10446787;28;20250;-79
2022/07/08 21:35:39;;;;;;;5.43;3.63;;;;;;;;;;10446787;28;20611;-81
2022/07/08 21:40:40;;;;;;;3.78;3.58;;;;;;;;;;10442778;28;20224;-80
2022/07/08 21:45:41;;;;;;;4.03;3.75;;;;;;;;;;10435965;28;20354;-80
2022/07/08 21:50:42;;;;;;;4.90;3.22;;;;;;;;;;10441821;28;20256;-80
2022/07/08 21:55:43;;;;;;;3.50;3.30;;;;;;;;;;10436486;28;20194;-80
2022/07/08 22:00:44;;;;;;;4.10;3.50;;;;;;;;;;10422037;28;20221;-80
2022/07/08 22:05:45;;;;;;;5.50;3.28;;;;;;;;;;10434075;28;20191;-80
2022/07/08 22:10:46;;;;;;;3.88;3.67;;;;;;;;;;10415391;28;20274;-79
2022/07/08 22:15:47;;;;;;;4.80;3.55;;;;;;;;;;10436910;28;20781;-80
2022/07/08 22:20:48;;;;;;;4.05;3.58;;;;;;;;;;10442738;28;20701;-79
2022/07/08 22:25:49;;;;;;;10.05;4.22;;;;;;;;;;10437352;28;20568;-80
2022/07/08 22:30:50;;;;;;;4.30;3.63;;;;;;;;;;10442660;28;20237;-80
2022/07/08 22:35:51;;;;;;;4.28;3.78;;;;;;;;;;10434194;28;20273;-80
2022/07/08 22:40:52;;;;;;;5.93;4.20;;;;;;;;;;10434531;28;20221;-80
2022/07/08 22:45:54;;;;;;;4.43;4.05;;;;;;;;;;10436552;28;20163;-80
2022/07/08 22:50:55;;;;;;;4.95;4.70;;;;;;;;;;10438357;28;21025;-80
2022/07/08 22:55:56;;;;;;;4.95;4.55;;;;;;;;;;10437929;28;20324;-80
2022/07/08 23:00:58;;;;;;;4.30;3.63;;;;;;;;;;10436176;28;20214;-79
2022/07/08 23:05:59;;;;;;;4.88;3.72;;;;;;;;;;10440693;28;20198;-80
2022/07/08 23:11:00;;;;;;;4.65;3.65;;;;;;;;;;10432693;28;20219;-80
2022/07/08 23:16:03;;;;;;;7.38;4.03;;;;;;;;;;10422265;28;20257;-81
2022/07/08 23:21:04;;;;;;;4.47;3.65;;;;;;;;;;10436854;28;20722;-80
2022/07/08 23:26:05;;;;;;;4.50;4.10;;;;;;;;;;10415913;28;20689;-79
2022/07/08 23:31:06;;;;;;;4.50;4.13;;;;;;;;;;10438645;28;20330;-79
2022/07/08 23:36:07;;;;;;;4.55;4.07;;;;;;;;;;10446435;28;20206;-79
2022/07/08 23:41:08;;;;;;;7.60;4.45;;;;;;;;;;10427511;28;20659;-80
2022/07/08 23:46:09;;;;;;;5.28;4.22;;;;;;;;;;10441493;28;20190;-79
2022/07/08 23:51:11;;;;;;;3.97;3.50;;;;;;;;;;10433305;28;21160;-79
2022/07/08 23:56:12;;;;;;;5.15;3.80;;;;;;;;;;10435386;28;20658;-80
